createdAt,value
2018-09-14T00:02:22.261Z,7.93
2018-09-14T00:06:30.562Z,11.40
2018-09-14T00:10:38.832Z,7.23
2018-09-14T00:14:47.180Z,12.70
2018-09-14T00:18:55.252Z,11.73
2018-09-14T00:23:03.569Z,11.10
2018-09-14T00:27:11.826Z,7.50
2018-09-14T00:31:20.153Z,8.13
2018-09-14T00:35:28.478Z,8.63
2018-09-14T00:39:36.827Z,10.57
2018-09-14T00:43:45.202Z,6.70
2018-09-14T00:47:53.567Z,11.10
2018-09-14T00:52:01.883Z,17.50
2018-09-14T00:56:10.284Z,9.03
2018-09-14T01:00:18.625Z,11.53
2018-09-14T01:04:26.983Z,9.50
2018-09-14T01:08:35.317Z,11.47
2018-09-14T01:12:43.654Z,10.93
2018-09-14T01:16:52.045Z,7.63
2018-09-14T01:21:00.387Z,8.03
2018-09-14T01:25:08.750Z,8.67
2018-09-14T01:29:17.144Z,9.90
2018-09-14T01:33:25.508Z,12.60
2018-09-14T01:37:33.883Z,9.57
2018-09-14T01:41:42.252Z,11.47
2018-09-14T01:45:50.649Z,7.70
2018-09-14T01:49:59.009Z,7.50
2018-09-14T01:54:07.381Z,7.17
2018-09-14T01:58:15.684Z,13.17
2018-09-14T02:02:24.008Z,7.80
2018-09-14T02:06:32.364Z,10.20
2018-09-14T02:10:40.730Z,9.90
2018-09-14T02:14:49.069Z,8.63
2018-09-14T02:18:57.444Z,6.93
2018-09-14T02:23:05.834Z,6.80
2018-09-14T02:27:14.129Z,8.67
2018-09-14T02:31:22.605Z,7.83
2018-09-14T02:35:30.905Z,7.33
2018-09-14T02:39:39.224Z,9.70
2018-09-14T02:43:47.508Z,7.33
2018-09-14T02:47:55.800Z,7.40
2018-09-14T02:52:04.168Z,8.58
2018-09-14T02:56:12.462Z,9.17
2018-09-14T03:00:20.767Z,13.10
2018-09-14T03:04:29.076Z,9.53
2018-09-14T03:08:37.443Z,6.90
2018-09-14T03:12:45.781Z,6.60
2018-09-14T03:16:54.104Z,6.80
2018-09-14T03:21:02.461Z,8.83
2018-09-14T03:25:10.781Z,7.73
2018-09-14T03:29:19.092Z,6.83
2018-09-14T03:33:27.396Z,9.57
2018-09-14T03:37:35.709Z,11.90
2018-09-14T03:41:43.982Z,9.97
2018-09-14T03:45:52.306Z,8.80
2018-09-14T03:50:00.625Z,9.73
2018-09-14T03:54:08.991Z,9.13
2018-09-14T03:58:17.369Z,7.28
2018-09-14T04:02:25.713Z,8.27
2018-09-14T04:06:34.159Z,7.90
2018-09-14T04:10:42.455Z,8.90
2018-09-14T04:14:50.768Z,7.73
2018-09-14T04:19:03.280Z,10.37
2018-09-14T04:23:11.578Z,6.50
2018-09-14T04:27:19.924Z,7.27
2018-09-14T04:31:28.291Z,10.53
2018-09-14T04:35:36.652Z,11.43
2018-09-14T04:39:44.939Z,8.33
2018-09-14T04:43:53.321Z,7.20
2018-09-14T04:48:01.753Z,10.70
2018-09-14T04:52:10.185Z,9.53
2018-09-14T04:56:18.485Z,14.13
2018-09-14T05:00:26.808Z,11.93
2018-09-14T05:04:34.832Z,11.30
2018-09-14T05:08:43.146Z,9.70
2018-09-14T05:12:51.467Z,11.90
2018-09-14T05:26:25.670Z,9.50
2018-09-14T05:30:34.049Z,8.33
2018-09-14T05:34:42.403Z,10.13
2018-09-14T05:38:50.751Z,9.73
2018-09-14T05:42:59.269Z,7.93
2018-09-14T05:47:08.006Z,9.37
2018-09-14T05:51:16.388Z,9.33
2018-09-14T05:55:24.733Z,10.63
2018-09-14T05:59:33.085Z,10.60
2018-09-14T06:03:41.422Z,14.15
2018-09-14T06:07:49.748Z,9.87
2018-09-14T06:11:58.103Z,10.40
2018-09-14T06:16:06.554Z,13.40
2018-09-14T06:20:14.903Z,12.07
2018-09-14T06:24:23.248Z,14.23
2018-09-14T06:28:31.589Z,11.97
2018-09-14T06:32:39.994Z,14.53
2018-09-14T06:36:48.354Z,13.83
2018-09-14T06:40:56.728Z,13.17
2018-09-14T06:45:05.132Z,16.30
2018-09-14T06:49:13.219Z,16.43
2018-09-14T06:53:21.662Z,16.33
2018-09-14T06:57:29.984Z,17.40
2018-09-14T07:01:38.315Z,13.90
2018-09-14T07:05:46.713Z,16.90
2018-09-14T07:09:55.117Z,17.80
2018-09-14T07:14:03.482Z,23.13
2018-09-14T07:18:11.834Z,21.60
2018-09-14T07:22:20.271Z,18.47
2018-09-14T07:26:28.583Z,19.20
2018-09-14T07:30:36.966Z,21.63
2018-09-14T07:34:45.758Z,16.13
2018-09-14T07:38:54.095Z,19.20
2018-09-14T07:43:02.429Z,22.40
2018-09-14T07:47:10.881Z,19.77
2018-09-14T07:51:19.371Z,24.93
2018-09-14T07:55:27.914Z,21.67
2018-09-14T07:59:36.202Z,27.97
2018-09-14T08:03:44.305Z,23.87
2018-09-14T08:07:52.633Z,32.90
2018-09-14T08:12:01.060Z,21.13
2018-09-14T08:16:09.360Z,20.13
2018-09-14T08:20:17.758Z,23.60
2018-09-14T08:24:26.075Z,28.33
2018-09-14T08:28:34.382Z,22.43
2018-09-14T08:32:42.704Z,18.57
2018-09-14T08:36:51.071Z,20.43
2018-09-14T08:40:59.439Z,19.33
2018-09-14T08:45:08.046Z,20.07
2018-09-14T08:49:16.447Z,22.73
2018-09-14T08:53:24.783Z,16.10
2018-09-14T08:57:33.168Z,20.10
2018-09-14T09:01:41.500Z,16.17
2018-09-14T09:05:49.823Z,16.67
2018-09-14T09:09:58.164Z,18.30
2018-09-14T09:14:06.647Z,20.77
2018-09-14T09:18:15.068Z,23.37
2018-09-14T09:22:23.344Z,19.98
2018-09-14T09:26:31.666Z,28.63
2018-09-14T09:30:40.084Z,29.07
2018-09-14T09:34:48.444Z,23.77
2018-09-14T09:38:56.759Z,19.90
2018-09-14T09:43:05.170Z,18.00
2018-09-14T09:47:13.510Z,23.20
2018-09-14T09:51:22.069Z,21.07
2018-09-14T09:55:30.302Z,25.13
2018-09-14T09:59:38.745Z,18.40
2018-09-14T10:03:52.411Z,20.13
2018-09-14T10:08:00.866Z,19.47
2018-09-14T10:12:09.218Z,18.90
2018-09-14T10:16:17.587Z,17.07
2018-09-14T10:20:25.955Z,20.60
2018-09-14T10:24:34.305Z,19.20
2018-09-14T10:28:42.682Z,20.30
2018-09-14T10:32:51.022Z,17.10
2018-09-14T10:36:59.387Z,13.57
2018-09-14T10:41:07.732Z,17.43
2018-09-14T10:45:17.017Z,13.20
2018-09-14T10:49:25.317Z,14.90
2018-09-14T10:53:33.635Z,13.60
2018-09-14T10:57:41.942Z,16.30
2018-09-14T11:01:50.295Z,14.40
2018-09-14T11:05:58.690Z,13.97
2018-09-14T11:10:07.044Z,16.23
2018-09-14T11:14:15.357Z,14.15
2018-09-14T11:18:23.704Z,11.43
2018-09-14T11:22:31.999Z,10.97
2018-09-14T11:26:40.339Z,15.30
2018-09-14T11:30:48.684Z,13.87
2018-09-14T11:34:57.023Z,14.43
2018-09-14T11:39:08.429Z,13.37
2018-09-14T11:43:16.736Z,14.03
2018-09-14T11:47:25.407Z,19.13
2018-09-14T11:51:33.697Z,12.70
2018-09-14T11:55:42.065Z,11.97
2018-09-14T11:59:50.437Z,11.10
2018-09-14T12:03:58.781Z,15.00
2018-09-14T12:08:07.182Z,13.33
2018-09-14T12:12:15.509Z,10.73
2018-09-14T12:16:23.885Z,9.80
2018-09-14T12:20:32.337Z,12.33
2018-09-14T12:24:40.698Z,10.03
2018-09-14T12:28:49.080Z,10.60
2018-09-14T12:32:57.417Z,11.13
2018-09-14T12:37:05.839Z,10.13
2018-09-14T12:41:14.147Z,10.83
2018-09-14T12:45:22.499Z,7.37
2018-09-14T12:49:30.918Z,14.90
2018-09-14T12:53:39.249Z,8.43
2018-09-14T12:57:47.817Z,7.63
2018-09-14T13:01:56.116Z,8.60
2018-09-14T13:06:04.425Z,13.53
2018-09-14T13:10:12.736Z,10.67
2018-09-14T13:14:21.840Z,10.00
2018-09-14T13:18:30.178Z,14.23
2018-09-14T13:22:38.499Z,9.50
2018-09-14T13:26:47.495Z,11.93
2018-09-14T13:30:55.805Z,8.53
2018-09-14T13:35:04.138Z,11.30
2018-09-14T13:39:12.636Z,8.30
2018-09-14T13:43:20.959Z,10.90
2018-09-14T13:47:29.310Z,12.07
2018-09-14T13:51:37.644Z,8.97
2018-09-14T13:55:45.995Z,12.40
2018-09-14T13:59:54.334Z,8.47
2018-09-14T14:04:02.656Z,9.10
2018-09-14T14:08:11.077Z,8.40
2018-09-14T14:12:19.460Z,11.80
2018-09-14T14:16:27.770Z,9.90
2018-09-14T14:20:36.094Z,11.00
2018-09-14T14:24:44.430Z,10.63
2018-09-14T14:28:52.919Z,10.50
2018-09-14T14:33:00.960Z,12.67
2018-09-14T14:37:09.307Z,9.43
2018-09-14T14:41:17.750Z,10.00
2018-09-14T14:45:25.951Z,10.37
2018-09-14T14:49:34.240Z,8.80
2018-09-14T14:53:42.609Z,9.80
2018-09-14T14:57:50.975Z,8.70
2018-09-14T15:01:59.257Z,11.57
2018-09-14T15:06:07.582Z,12.00
2018-09-14T15:10:15.919Z,10.27
2018-09-14T15:14:24.230Z,10.50
2018-09-14T15:18:32.585Z,14.68
2018-09-14T15:22:40.894Z,16.70
2018-09-14T15:26:49.232Z,11.47
2018-09-14T15:30:57.626Z,10.20
2018-09-14T15:35:05.930Z,7.37
2018-09-14T15:39:14.392Z,12.77
2018-09-14T15:43:22.772Z,10.00
2018-09-14T15:47:31.105Z,10.23
2018-09-14T15:51:39.428Z,7.17
2018-09-14T15:55:47.769Z,9.35
2018-09-14T15:59:56.072Z,10.05
2018-09-14T16:04:04.389Z,13.83
2018-09-14T16:08:12.754Z,7.03
2018-09-14T16:12:21.062Z,9.67
2018-09-14T16:16:29.365Z,9.10
2018-09-14T16:20:37.672Z,12.00
2018-09-14T16:24:46.000Z,9.30
2018-09-14T16:28:54.312Z,10.53
2018-09-14T16:33:02.689Z,9.67
2018-09-14T16:37:11.049Z,7.00
2018-09-14T16:41:19.300Z,7.93
2018-09-14T16:45:27.681Z,8.13
2018-09-14T16:49:36.007Z,9.37
2018-09-14T16:53:44.330Z,6.07
2018-09-14T16:57:52.675Z,7.37
2018-09-14T17:02:01.062Z,7.00
2018-09-14T17:06:09.361Z,7.30
2018-09-14T17:10:17.710Z,9.83
2018-09-14T17:14:26.100Z,10.13
2018-09-14T17:18:34.455Z,10.20
2018-09-14T17:22:42.781Z,8.90
2018-09-14T17:26:51.124Z,12.17
2018-09-14T17:30:59.491Z,6.73
2018-09-14T17:35:07.853Z,6.57
2018-09-14T17:39:16.234Z,7.53
2018-09-14T17:43:24.594Z,9.40
2018-09-14T17:47:32.948Z,16.03
2018-09-14T17:51:41.392Z,7.87
2018-09-14T17:55:49.767Z,11.05
2018-09-14T17:59:58.100Z,8.87
2018-09-14T18:04:06.508Z,9.57
2018-09-14T18:08:14.840Z,8.57
2018-09-14T18:12:23.260Z,9.47
2018-09-14T18:16:31.451Z,11.03
2018-09-14T18:20:40.029Z,8.70
2018-09-14T18:24:48.354Z,11.03
2018-09-14T18:28:56.652Z,10.47
2018-09-14T18:33:05.029Z,8.47
2018-09-14T18:37:13.359Z,12.60
2018-09-14T18:41:21.674Z,9.73
2018-09-14T18:45:29.995Z,13.23
2018-09-14T18:49:38.340Z,10.13
2018-09-14T18:53:46.675Z,13.00
2018-09-14T18:57:55.010Z,10.37
2018-09-14T19:02:03.372Z,11.00
2018-09-14T19:06:12.528Z,10.03
2018-09-14T19:10:20.959Z,13.77
2018-09-14T19:14:29.170Z,14.10
2018-09-14T19:18:37.568Z,12.03
2018-09-14T19:22:45.884Z,11.20
2018-09-14T19:26:54.187Z,12.37
2018-09-14T19:31:02.663Z,10.80
2018-09-14T19:35:10.986Z,9.13
2018-09-14T19:39:19.380Z,7.30
2018-09-14T19:43:27.834Z,10.07
2018-09-14T19:47:36.195Z,12.10
2018-09-14T19:51:44.490Z,9.60
2018-09-14T19:55:52.834Z,10.40
2018-09-14T20:00:01.251Z,11.07
2018-09-14T20:04:09.614Z,11.60
2018-09-14T20:08:17.934Z,9.97
2018-09-14T20:12:26.281Z,10.80
2018-09-14T20:16:34.592Z,11.20
2018-09-14T20:20:42.901Z,9.60
2018-09-14T20:24:51.229Z,12.37
2018-09-14T20:28:59.590Z,19.03
2018-09-14T20:33:07.858Z,9.33
2018-09-14T20:37:16.220Z,9.73
2018-09-14T20:41:24.530Z,12.33
2018-09-14T20:45:32.843Z,9.18
2018-09-14T20:49:41.192Z,12.63
2018-09-14T20:53:49.482Z,14.17
2018-09-14T20:57:57.844Z,13.60
2018-09-14T21:02:06.220Z,12.60
2018-09-14T21:06:14.680Z,10.10
2018-09-14T21:10:23.064Z,13.53
2018-09-14T21:14:31.419Z,10.53
2018-09-14T21:18:40.661Z,12.68
2018-09-14T21:22:48.966Z,14.13
2018-09-14T21:26:57.304Z,11.87
2018-09-14T21:31:05.604Z,9.77
2018-09-14T21:35:13.960Z,13.80
2018-09-14T21:39:22.336Z,14.73
2018-09-14T21:43:30.623Z,9.70
2018-09-14T21:47:39.056Z,16.70
2018-09-14T21:51:47.365Z,13.90
2018-09-14T21:55:55.696Z,10.00
2018-09-14T22:00:09.425Z,9.37
2018-09-14T22:04:17.795Z,12.25
2018-09-14T22:08:26.156Z,13.50
2018-09-14T22:12:34.497Z,11.10
2018-09-14T22:16:42.920Z,8.87
2018-09-14T22:20:51.282Z,9.10
2018-09-14T22:24:59.682Z,9.07
2018-09-14T22:29:07.994Z,14.67
2018-09-14T22:33:16.313Z,11.80
2018-09-14T22:37:24.611Z,8.90
2018-09-14T22:41:32.951Z,11.03
2018-09-14T22:45:41.270Z,10.63
2018-09-14T22:49:49.612Z,10.60
2018-09-14T22:53:57.949Z,13.43
2018-09-14T22:58:06.361Z,10.63
2018-09-14T23:02:14.712Z,10.17
2018-09-14T23:06:23.014Z,13.60
2018-09-14T23:10:31.340Z,9.80
2018-09-14T23:14:40.110Z,11.37
2018-09-14T23:18:48.782Z,15.58
2018-09-14T23:22:57.142Z,11.37
2018-09-14T23:27:05.492Z,7.93
2018-09-14T23:31:13.810Z,10.07
2018-09-14T23:35:22.112Z,11.93
2018-09-14T23:39:30.464Z,14.63
2018-09-14T23:43:38.776Z,10.47
2018-09-14T23:47:47.143Z,11.40
2018-09-14T23:51:55.510Z,9.40
2018-09-14T23:56:04.253Z,11.13
